createdAt,value
2018-08-09T00:01:06.550Z,16.63
2018-08-09T00:03:34.837Z,18.00
2018-08-09T00:06:03.101Z,17.13
2018-08-09T00:08:31.350Z,16.60
2018-08-09T00:10:59.607Z,17.40
2018-08-09T00:13:27.893Z,19.03
2018-08-09T00:15:56.162Z,17.67
2018-08-09T00:18:24.469Z,18.07
2018-08-09T00:20:52.754Z,17.93
2018-08-09T00:23:21.079Z,19.57
2018-08-09T00:25:49.292Z,17.90
2018-08-09T00:28:17.523Z,19.00
2018-08-09T00:30:45.823Z,17.50
2018-08-09T00:33:14.104Z,17.17
2018-08-09T00:35:42.373Z,17.67
2018-08-09T00:38:10.577Z,18.37
2018-08-09T00:40:38.824Z,18.00
2018-08-09T00:43:07.039Z,16.37
2018-08-09T00:45:35.369Z,18.10
2018-08-09T00:48:03.574Z,19.37
2018-08-09T00:50:31.763Z,17.90
2018-08-09T00:52:59.997Z,20.03
2018-08-09T00:55:28.605Z,21.10
2018-08-09T00:57:56.797Z,18.20
2018-08-09T01:00:25.058Z,18.80
2018-08-09T01:02:53.365Z,18.67
2018-08-09T01:05:21.629Z,19.30
2018-08-09T01:07:49.929Z,21.00
2018-08-09T01:10:18.245Z,21.27
2018-08-09T01:12:46.545Z,19.63
2018-08-09T01:15:14.735Z,19.23
2018-08-09T01:17:42.989Z,19.70
2018-08-09T01:20:11.273Z,19.33
2018-08-09T01:22:39.491Z,19.20
2018-08-09T01:25:07.708Z,19.13
2018-08-09T01:27:35.921Z,20.37
2018-08-09T01:30:04.580Z,18.50
2018-08-09T01:32:32.769Z,18.77
2018-08-09T01:35:01.026Z,19.20
2018-08-09T01:37:29.336Z,20.27
2018-08-09T01:39:57.585Z,19.90
2018-08-09T01:43:37.817Z,18.93
2018-08-09T01:46:06.496Z,18.53
2018-08-09T01:48:35.577Z,18.80
2018-08-09T01:51:03.873Z,18.57
2018-08-09T01:53:32.086Z,17.33
2018-08-09T01:56:00.279Z,19.33
2018-08-09T01:58:28.510Z,18.67
2018-08-09T02:00:56.717Z,17.80
2018-08-09T02:03:24.992Z,18.93
2018-08-09T02:05:53.174Z,19.00
2018-08-09T02:08:21.354Z,20.77
2018-08-09T02:10:49.546Z,18.30
2018-08-09T02:13:17.834Z,19.63
2018-08-09T02:15:46.030Z,20.33
2018-08-09T02:18:14.213Z,19.70
2018-08-09T02:20:42.538Z,19.50
2018-08-09T02:23:10.789Z,20.33
2018-08-09T02:25:38.974Z,20.23
2018-08-09T02:28:07.259Z,19.03
2018-08-09T02:30:35.450Z,21.43
2018-08-09T02:33:04.242Z,20.30
2018-08-09T02:35:32.437Z,18.70
2018-08-09T02:38:00.626Z,21.57
2018-08-09T02:40:28.861Z,21.43
2018-08-09T02:42:57.041Z,21.37
2018-08-09T02:45:25.298Z,20.77
2018-08-09T02:47:53.497Z,22.67
2018-08-09T02:50:21.704Z,20.87
2018-08-09T02:52:49.967Z,21.87
2018-08-09T02:55:18.262Z,21.27
2018-08-09T02:57:46.450Z,22.30
2018-08-09T03:00:14.637Z,21.43
2018-08-09T03:02:42.901Z,22.70
2018-08-09T03:05:11.207Z,23.70
2018-08-09T03:07:39.399Z,25.83
2018-08-09T03:10:07.602Z,25.17
2018-08-09T03:12:35.841Z,24.90
2018-08-09T03:15:04.071Z,25.73
2018-08-09T03:17:32.298Z,25.70
2018-08-09T03:21:03.870Z,26.63
2018-08-09T03:23:32.051Z,25.80
2018-08-09T03:26:00.282Z,26.93
2018-08-09T03:28:28.653Z,25.87
2018-08-09T03:30:56.866Z,27.00
2018-08-09T03:33:25.129Z,24.70
2018-08-09T03:35:53.310Z,26.90
2018-08-09T03:38:21.487Z,26.60
2018-08-09T03:40:49.674Z,25.27
2018-08-09T03:43:17.861Z,26.03
2018-08-09T03:45:46.106Z,29.03
2018-08-09T03:48:14.293Z,28.27
2018-08-09T03:50:42.485Z,29.53
2018-08-09T03:53:10.730Z,28.77
2018-08-09T03:55:38.934Z,27.40
2018-08-09T03:58:07.180Z,28.17
2018-08-09T04:00:35.418Z,25.33
2018-08-09T04:03:03.741Z,26.20
2018-08-09T04:05:31.941Z,25.03
2018-08-09T04:08:00.269Z,24.60
2018-08-09T04:10:28.754Z,23.07
2018-08-09T04:12:57.046Z,22.40
2018-08-09T04:15:25.341Z,22.50
2018-08-09T04:17:53.700Z,23.87
2018-08-09T04:20:21.898Z,23.70
2018-08-09T04:22:50.127Z,24.47
2018-08-09T04:25:18.327Z,24.67
2018-08-09T04:27:46.527Z,22.43
2018-08-09T04:30:14.803Z,23.80
2018-08-09T04:32:43.074Z,26.47
2018-08-09T04:35:11.354Z,23.67
2018-08-09T04:37:39.539Z,23.87
2018-08-09T04:40:07.752Z,24.97
2018-08-09T04:42:35.938Z,24.73
2018-08-09T04:45:04.305Z,24.10
2018-08-09T04:47:32.501Z,24.67
2018-08-09T04:50:00.696Z,24.07
2018-08-09T04:52:28.891Z,26.87
2018-08-09T04:54:57.134Z,27.70
2018-08-09T04:57:25.343Z,25.87
2018-08-09T04:59:53.625Z,27.97
2018-08-09T05:02:21.842Z,26.23
2018-08-09T05:04:50.038Z,27.33
2018-08-09T05:07:20.594Z,27.00
2018-08-09T05:09:48.774Z,25.97
2018-08-09T05:12:16.986Z,25.27
2018-08-09T05:14:45.169Z,26.70
2018-08-09T05:17:13.386Z,25.10
2018-08-09T05:19:41.598Z,26.77
2018-08-09T05:22:09.786Z,25.17
2018-08-09T05:24:37.066Z,24.60
2018-08-09T05:27:05.282Z,23.13
2018-08-09T05:29:33.563Z,23.90
2018-08-09T05:32:01.746Z,23.47
2018-08-09T05:34:29.941Z,24.17
2018-08-09T05:36:58.113Z,24.43
2018-08-09T05:39:26.298Z,23.60
2018-08-09T05:41:54.526Z,23.10
2018-08-09T05:44:22.710Z,22.73
2018-08-09T05:46:50.922Z,22.27
2018-08-09T05:49:19.121Z,22.30
2018-08-09T05:51:47.317Z,22.30
2018-08-09T05:54:15.530Z,20.43
2018-08-09T05:56:43.727Z,22.27
2018-08-09T05:59:11.926Z,20.40
2018-08-09T06:01:40.144Z,21.07
2018-08-09T06:04:08.329Z,23.20
2018-08-09T06:06:36.570Z,22.00
2018-08-09T06:09:08.119Z,22.60
2018-08-09T06:11:36.340Z,22.73
2018-08-09T06:14:04.549Z,21.13
2018-08-09T06:16:32.865Z,23.23
2018-08-09T06:19:01.072Z,21.27
2018-08-09T06:21:29.342Z,23.10
2018-08-09T06:23:57.547Z,22.80
2018-08-09T06:26:25.858Z,22.63
2018-08-09T06:28:54.058Z,24.77
2018-08-09T06:31:22.685Z,24.30
2018-08-09T06:33:50.870Z,23.03
2018-08-09T06:36:19.116Z,24.87
2018-08-09T06:38:47.385Z,24.43
2018-08-09T06:41:15.589Z,24.33
2018-08-09T06:43:43.795Z,23.70
2018-08-09T06:46:11.982Z,22.23
2018-08-09T06:48:40.194Z,22.40
2018-08-09T06:51:08.400Z,23.00
2018-08-09T06:53:36.569Z,23.43
2018-08-09T06:56:04.791Z,22.13
2018-08-09T06:58:32.987Z,22.03
2018-08-09T07:01:01.197Z,21.50
2018-08-09T07:03:29.390Z,20.53
2018-08-09T07:05:57.578Z,21.87
2018-08-09T07:08:25.789Z,21.27
2018-08-09T07:10:53.989Z,20.20
2018-08-09T07:13:22.202Z,21.63
2018-08-09T07:15:50.397Z,19.37
2018-08-09T07:18:18.630Z,21.13
2018-08-09T07:20:46.838Z,20.93
2018-08-09T07:23:15.056Z,20.20
2018-08-09T07:25:43.286Z,21.30
2018-08-09T07:28:11.489Z,19.33
2018-08-09T07:30:39.712Z,20.37
2018-08-09T07:33:07.950Z,19.43
2018-08-09T07:35:36.186Z,19.83
2018-08-09T07:38:04.398Z,19.07
2018-08-09T07:40:32.641Z,17.30
2018-08-09T07:43:00.854Z,19.00
2018-08-09T07:45:29.093Z,19.40
2018-08-09T07:47:57.281Z,20.03
2018-08-09T07:50:25.502Z,19.03
2018-08-09T07:52:53.716Z,19.40
2018-08-09T07:55:21.933Z,19.07
2018-08-09T07:57:50.158Z,17.43
2018-08-09T08:00:18.364Z,17.90
2018-08-09T08:02:46.587Z,16.90
2018-08-09T08:05:14.799Z,16.70
2018-08-09T08:07:43.007Z,15.20
2018-08-09T08:10:11.296Z,15.90
2018-08-09T08:12:39.719Z,15.80
2018-08-09T08:15:09.049Z,16.23
2018-08-09T08:17:37.323Z,16.57
2018-08-09T08:20:05.534Z,17.03
2018-08-09T08:22:33.742Z,15.20
2018-08-09T08:25:01.972Z,14.83
2018-08-09T08:27:30.160Z,17.03
2018-08-09T08:29:58.393Z,15.23
2018-08-09T08:32:26.583Z,16.43
2018-08-09T08:34:54.807Z,16.30
2018-08-09T08:37:23.047Z,15.70
2018-08-09T08:39:51.232Z,15.60
2018-08-09T08:42:19.478Z,15.07
2018-08-09T08:44:47.683Z,15.40
2018-08-09T08:47:15.901Z,15.70
2018-08-09T08:49:44.118Z,15.10
2018-08-09T08:52:12.321Z,14.63
2018-08-09T08:54:40.518Z,14.77
2018-08-09T08:57:08.744Z,15.20
2018-08-09T08:59:36.917Z,14.03
2018-08-09T09:02:05.118Z,14.17
2018-08-09T09:04:33.364Z,14.53
2018-08-09T09:07:01.713Z,15.57
2018-08-09T09:09:29.831Z,14.57
2018-08-09T09:11:58.048Z,16.33
2018-08-09T09:14:26.286Z,15.30
2018-08-09T09:16:54.531Z,15.10
2018-08-09T09:19:22.810Z,14.57
2018-08-09T09:21:51.144Z,15.73
2018-08-09T09:24:19.354Z,14.20
2018-08-09T09:29:15.782Z,16.77
2018-08-09T09:31:43.990Z,13.90
2018-08-09T09:34:12.257Z,13.87
2018-08-09T09:36:40.470Z,15.00
2018-08-09T09:39:09.938Z,14.47
2018-08-09T09:41:38.449Z,13.50
2018-08-09T09:44:06.804Z,14.57
2018-08-09T09:46:35.026Z,13.70
2018-08-09T09:49:03.396Z,13.00
2018-08-09T09:51:31.626Z,14.97
2018-08-09T09:54:00.171Z,14.30
2018-08-09T09:56:28.369Z,14.47
2018-08-09T09:58:56.593Z,14.33
2018-08-09T10:01:30.134Z,13.70
2018-08-09T10:03:58.326Z,14.20
2018-08-09T10:06:26.533Z,14.50
2018-08-09T10:08:54.758Z,16.73
2018-08-09T10:11:23.003Z,14.27
2018-08-09T10:13:51.205Z,13.70
2018-08-09T10:16:19.375Z,12.80
2018-08-09T10:18:47.601Z,13.23
2018-08-09T10:21:15.802Z,14.47
2018-08-09T10:23:44.022Z,13.20
2018-08-09T10:26:12.241Z,12.47
2018-08-09T10:28:40.461Z,12.33
2018-08-09T10:31:09.498Z,11.77
2018-08-09T10:33:37.805Z,11.63
2018-08-09T10:36:06.070Z,12.90
2018-08-09T10:38:34.310Z,12.10
2018-08-09T10:41:02.817Z,12.53
2018-08-09T10:43:31.091Z,12.40
2018-08-09T10:45:59.434Z,11.93
2018-08-09T10:48:27.678Z,13.47
2018-08-09T10:50:55.873Z,12.43
2018-08-09T10:53:24.178Z,12.40
2018-08-09T10:55:52.379Z,12.70
2018-08-09T10:58:20.597Z,12.67
2018-08-09T11:00:48.780Z,12.67
2018-08-09T11:03:16.977Z,11.47
2018-08-09T11:05:45.206Z,12.60
2018-08-09T11:08:13.410Z,11.30
2018-08-09T11:10:41.866Z,11.30
2018-08-09T11:13:10.737Z,11.70
2018-08-09T11:15:38.936Z,11.50
2018-08-09T11:18:07.194Z,12.10
2018-08-09T11:20:35.389Z,12.47
2018-08-09T11:23:03.590Z,12.13
2018-08-09T11:25:31.768Z,12.13
2018-08-09T11:27:59.934Z,12.20
2018-08-09T11:30:28.093Z,12.87
2018-08-09T11:32:56.273Z,12.70
2018-08-09T11:35:24.462Z,12.77
2018-08-09T11:37:52.640Z,11.73
2018-08-09T11:40:20.833Z,11.97
2018-08-09T11:42:49.010Z,11.83
2018-08-09T11:45:17.175Z,11.80
2018-08-09T11:47:45.358Z,15.00
2018-08-09T11:50:13.534Z,13.03
2018-08-09T11:52:41.741Z,12.73
2018-08-09T11:55:09.927Z,12.87
2018-08-09T11:57:38.105Z,13.10
2018-08-09T12:00:08.229Z,11.60
2018-08-09T12:02:36.429Z,12.40
2018-08-09T12:05:04.676Z,12.37
2018-08-09T12:07:32.867Z,12.40
2018-08-09T12:10:01.071Z,13.10
2018-08-09T12:12:29.260Z,12.60
2018-08-09T12:14:57.528Z,12.20
2018-08-09T12:17:25.678Z,12.10
2018-08-09T12:19:53.921Z,12.33
2018-08-09T12:22:22.098Z,10.90
2018-08-09T12:24:50.336Z,10.93
2018-08-09T12:27:18.498Z,10.87
2018-08-09T12:29:46.682Z,12.80
2018-08-09T12:32:14.873Z,10.77
2018-08-09T12:34:43.066Z,12.40
2018-08-09T12:37:11.252Z,10.63
2018-08-09T12:39:39.437Z,10.57
2018-08-09T12:42:07.633Z,10.23
2018-08-09T12:44:35.911Z,9.87
2018-08-09T12:47:04.177Z,9.20
2018-08-09T12:49:32.390Z,9.17
2018-08-09T12:52:00.590Z,9.90
2018-08-09T12:54:28.769Z,8.83
2018-08-09T12:56:56.961Z,9.90
2018-08-09T12:59:25.248Z,9.40
2018-08-09T13:01:53.450Z,9.23
2018-08-09T13:04:21.631Z,9.73
2018-08-09T13:06:49.869Z,9.27
2018-08-09T13:09:19.101Z,10.00
2018-08-09T13:16:35.474Z,9.40
2018-08-09T13:19:03.806Z,9.53
2018-08-09T13:21:32.042Z,9.73
2018-08-09T13:24:00.242Z,9.83
2018-08-09T13:26:28.522Z,9.40
2018-08-09T13:28:56.685Z,8.60
2018-08-09T13:31:25.046Z,8.27
2018-08-09T13:33:53.293Z,8.83
2018-08-09T13:36:21.657Z,8.27
2018-08-09T13:38:50.038Z,8.80
2018-08-09T13:41:18.214Z,9.53
2018-08-09T13:43:46.425Z,7.70
2018-08-09T13:46:14.634Z,7.30
2018-08-09T13:48:42.809Z,6.80
2018-08-09T13:51:10.990Z,8.33
2018-08-09T13:53:39.198Z,7.97
2018-08-09T13:56:07.432Z,9.40
2018-08-09T13:58:35.598Z,8.40
2018-08-09T14:01:03.797Z,9.50
2018-08-09T14:03:32.054Z,10.03
2018-08-09T14:06:00.261Z,11.20
2018-08-09T14:08:28.484Z,12.80
2018-08-09T14:10:56.774Z,10.70
2018-08-09T14:13:24.938Z,10.77
2018-08-09T14:15:53.118Z,10.20
2018-08-09T14:18:21.353Z,9.60
2018-08-09T14:20:49.527Z,9.53
2018-08-09T14:23:17.697Z,9.70
2018-08-09T14:25:45.926Z,10.43
2018-08-09T14:28:14.117Z,10.10
2018-08-09T14:30:42.385Z,11.20
2018-08-09T14:33:10.553Z,9.70
2018-08-09T14:35:38.739Z,10.03
2018-08-09T14:38:06.918Z,9.10
2018-08-09T14:40:35.113Z,8.70
2018-08-09T14:43:03.353Z,8.77
2018-08-09T14:45:31.517Z,8.93
2018-08-09T14:47:59.810Z,8.60
2018-08-09T14:50:28.093Z,9.97
2018-08-09T14:52:56.405Z,9.80
2018-08-09T14:55:24.646Z,9.40
2018-08-09T14:57:52.857Z,9.77
2018-08-09T15:00:21.045Z,9.13
2018-08-09T15:02:49.360Z,9.83
2018-08-09T15:05:17.917Z,9.80
2018-08-09T15:07:46.346Z,9.10
2018-08-09T15:10:15.372Z,8.67
2018-08-09T15:12:43.578Z,9.37
2018-08-09T15:15:12.106Z,10.13
2018-08-09T15:17:40.373Z,8.77
2018-08-09T15:20:10.499Z,9.80
2018-08-09T15:22:38.856Z,9.03
2018-08-09T15:25:07.795Z,8.20
2018-08-09T15:27:35.969Z,9.50
2018-08-09T15:30:05.168Z,9.50
2018-08-09T15:32:33.346Z,8.73
2018-08-09T15:35:01.671Z,9.47
2018-08-09T15:37:29.867Z,9.70
2018-08-09T15:39:58.047Z,9.30
2018-08-09T15:42:26.241Z,8.70
2018-08-09T15:44:54.438Z,8.73
2018-08-09T15:47:22.796Z,8.60
2018-08-09T15:49:51.073Z,9.10
2018-08-09T15:52:19.261Z,8.83
2018-08-09T15:54:47.445Z,10.00
2018-08-09T15:57:15.665Z,8.80
2018-08-09T15:59:44.147Z,9.97
2018-08-09T16:02:12.439Z,8.20
2018-08-09T16:04:40.567Z,8.47
2018-08-09T16:07:08.829Z,9.20
2018-08-09T16:09:37.022Z,8.20
2018-08-09T16:12:05.232Z,7.40
2018-08-09T16:14:33.572Z,8.00
2018-08-09T16:17:01.752Z,8.00
2018-08-09T16:19:29.994Z,8.30
2018-08-09T16:21:58.166Z,8.40
2018-08-09T16:24:26.418Z,7.30
2018-08-09T16:26:54.627Z,8.57
2018-08-09T16:29:22.809Z,8.43
2018-08-09T16:31:51.006Z,8.80
2018-08-09T16:34:19.283Z,9.17
2018-08-09T16:36:47.473Z,8.57
2018-08-09T16:39:15.674Z,8.77
2018-08-09T16:41:43.973Z,7.77
2018-08-09T16:44:12.435Z,8.83
2018-08-09T16:46:40.666Z,9.60
2018-08-09T16:52:26.191Z,8.40
2018-08-09T16:54:54.997Z,9.40
2018-08-09T16:57:23.330Z,10.37
2018-08-09T16:59:51.635Z,9.10
2018-08-09T17:02:19.957Z,9.30
2018-08-09T17:04:48.193Z,9.73
2018-08-09T17:07:16.490Z,8.50
2018-08-09T17:09:44.754Z,9.00
2018-08-09T17:12:13.026Z,8.73
2018-08-09T17:14:41.333Z,8.33
2018-08-09T17:17:09.618Z,8.70
2018-08-09T17:19:37.915Z,7.60
2018-08-09T17:22:06.932Z,8.33
2018-08-09T17:24:35.175Z,8.20
2018-08-09T17:27:03.494Z,7.60
2018-08-09T17:29:31.864Z,8.93
2018-08-09T17:32:00.075Z,8.33
2018-08-09T17:34:28.352Z,7.17
2018-08-09T17:36:56.687Z,7.77
2018-08-09T17:39:24.937Z,8.27
2018-08-09T17:41:53.131Z,8.10
2018-08-09T17:44:21.431Z,7.90
2018-08-09T17:46:49.663Z,7.83
2018-08-09T17:49:17.953Z,8.30
2018-08-09T17:51:46.292Z,8.37
2018-08-09T17:54:14.586Z,7.20
2018-08-09T17:56:42.796Z,8.27
2018-08-09T17:59:11.038Z,7.70
2018-08-09T18:01:39.302Z,7.80
2018-08-09T18:04:07.711Z,6.83
2018-08-09T18:06:36.030Z,6.43
2018-08-09T18:09:07.056Z,6.67
2018-08-09T18:11:35.370Z,6.33
2018-08-09T18:14:03.756Z,6.40
2018-08-09T18:16:31.986Z,7.13
2018-08-09T18:19:00.214Z,6.57
2018-08-09T18:21:28.416Z,5.73
2018-08-09T18:23:56.648Z,6.63
2018-08-09T18:26:24.963Z,6.90
2018-08-09T18:28:53.294Z,6.83
2018-08-09T18:31:21.555Z,6.60
2018-08-09T18:33:49.906Z,7.53
2018-08-09T18:36:18.195Z,6.37
2018-08-09T18:38:46.510Z,6.50
2018-08-09T18:41:14.817Z,6.40
2018-08-09T18:43:43.116Z,6.90
2018-08-09T18:46:11.418Z,7.17
2018-08-09T18:48:39.691Z,7.27
2018-08-09T18:51:08.123Z,6.87
2018-08-09T18:53:36.351Z,6.57
2018-08-09T18:56:04.694Z,6.53
2018-08-09T18:58:32.913Z,7.07
2018-08-09T19:01:01.311Z,6.87
2018-08-09T19:03:29.678Z,7.40
2018-08-09T19:05:58.873Z,6.80
2018-08-09T19:08:27.207Z,6.47
2018-08-09T19:10:55.499Z,7.40
2018-08-09T19:13:23.783Z,6.53
2018-08-09T19:15:52.056Z,6.20
2018-08-09T19:18:20.359Z,7.30
2018-08-09T19:20:48.622Z,6.20
2018-08-09T19:23:17.027Z,6.33
2018-08-09T19:25:45.590Z,6.57
2018-08-09T19:28:13.831Z,6.90
2018-08-09T19:30:42.110Z,7.50
2018-08-09T19:33:10.455Z,7.70
2018-08-09T19:35:38.679Z,6.83
2018-08-09T19:38:07.035Z,6.97
2018-08-09T19:40:35.263Z,6.80
2018-08-09T19:43:03.583Z,7.67
2018-08-09T19:45:31.811Z,6.33
2018-08-09T19:48:00.087Z,6.77
2018-08-09T19:50:28.342Z,7.50
2018-08-09T19:52:56.630Z,7.63
2018-08-09T19:55:26.178Z,7.33
2018-08-09T19:57:54.473Z,7.47
2018-08-09T20:00:25.214Z,7.20
2018-08-09T20:02:53.431Z,7.07
2018-08-09T20:05:21.838Z,7.10
2018-08-09T20:07:50.107Z,6.90
2018-08-09T20:10:18.328Z,6.67
2018-08-09T20:12:47.625Z,7.57
2018-08-09T20:15:18.626Z,7.60
2018-08-09T20:17:46.859Z,7.90
2018-08-09T20:20:16.239Z,7.00
2018-08-09T20:22:44.550Z,7.00
2018-08-09T20:25:13.527Z,7.23
2018-08-09T20:27:42.326Z,7.80
2018-08-09T20:30:12.153Z,9.20
2018-08-09T20:32:40.746Z,6.70
2018-08-09T20:35:11.838Z,6.70
2018-08-09T20:37:41.532Z,6.97
2018-08-09T20:40:10.631Z,7.43
2018-08-09T20:42:39.418Z,8.03
2018-08-09T20:45:09.064Z,7.67
2018-08-09T20:47:38.038Z,6.97
2018-08-09T20:50:08.887Z,7.60
2018-08-09T20:52:39.371Z,7.30
2018-08-09T20:55:08.142Z,7.10
2018-08-09T20:57:36.451Z,6.80
2018-08-09T21:00:08.379Z,7.20
2018-08-09T21:02:36.734Z,7.40
2018-08-09T21:05:05.336Z,7.07
2018-08-09T21:07:33.563Z,7.30
2018-08-09T21:10:01.788Z,6.77
2018-08-09T21:12:30.059Z,7.30
2018-08-09T21:14:58.378Z,6.47
2018-08-09T21:17:26.605Z,6.30
2018-08-09T21:19:54.941Z,7.13
2018-08-09T21:22:23.189Z,6.10
2018-08-09T21:24:51.475Z,6.37
2018-08-09T21:27:19.778Z,6.53
2018-08-09T21:29:48.083Z,6.23
2018-08-09T21:32:16.380Z,6.50
2018-08-09T21:34:44.515Z,6.73
2018-08-09T21:37:12.743Z,7.10
2018-08-09T21:39:40.935Z,6.33
2018-08-09T21:42:09.229Z,7.40
2018-08-09T21:44:37.467Z,5.97
2018-08-09T21:47:05.794Z,7.03
2018-08-09T21:49:34.042Z,6.97
2018-08-09T21:52:02.367Z,6.60
2018-08-09T21:54:30.681Z,6.70
2018-08-09T21:56:58.966Z,6.67
2018-08-09T21:59:27.267Z,6.83
2018-08-09T22:01:55.567Z,6.60
2018-08-09T22:04:23.791Z,6.30
2018-08-09T22:06:57.358Z,5.87
2018-08-09T22:09:30.702Z,6.70
2018-08-09T22:12:04.330Z,5.73
2018-08-09T22:14:37.939Z,7.23
2018-08-09T22:17:11.466Z,6.50
2018-08-09T22:19:45.171Z,5.90
2018-08-09T22:22:14.059Z,5.33
2018-08-09T22:24:42.275Z,5.80
2018-08-09T22:27:10.914Z,6.27
2018-08-09T22:29:39.142Z,6.30
2018-08-09T22:32:07.451Z,5.63
2018-08-09T22:34:35.712Z,6.00
2018-08-09T22:37:04.067Z,5.80
2018-08-09T22:39:32.286Z,5.60
2018-08-09T22:42:00.612Z,6.50
2018-08-09T22:44:28.850Z,5.60
2018-08-09T22:46:57.145Z,5.63
2018-08-09T22:49:40.127Z,5.63
2018-08-09T22:52:08.386Z,5.47
2018-08-09T22:54:36.651Z,5.50
2018-08-09T23:00:36.447Z,5.20
2018-08-09T23:03:08.171Z,4.97
2018-08-09T23:05:36.934Z,5.30
2018-08-09T23:08:05.762Z,5.07
2018-08-09T23:10:34.011Z,5.80
2018-08-09T23:13:02.271Z,6.90
2018-08-09T23:15:30.510Z,5.67
2018-08-09T23:17:58.814Z,5.70
2018-08-09T23:20:27.052Z,6.20
2018-08-09T23:22:55.338Z,5.50
2018-08-09T23:25:23.563Z,5.37
2018-08-09T23:27:51.846Z,5.10
2018-08-09T23:30:20.128Z,5.13
2018-08-09T23:32:48.420Z,3.83
2018-08-09T23:35:16.699Z,4.80
2018-08-09T23:37:44.986Z,4.60
2018-08-09T23:40:13.274Z,4.57
2018-08-09T23:42:41.511Z,4.77
2018-08-09T23:45:10.202Z,4.47
2018-08-09T23:47:39.647Z,4.20
2018-08-09T23:50:09.679Z,4.20
2018-08-09T23:52:38.805Z,4.07
2018-08-09T23:55:09.682Z,4.10
2018-08-09T23:57:37.988Z,4.67
